createdAt,value
2022-07-25T00:01:50.995Z,63.08
2022-07-25T00:04:19.230Z,63.18
2022-07-25T00:06:46.745Z,63.59
2022-07-25T00:09:13.873Z,64.03
2022-07-25T00:11:40.734Z,64.19
2022-07-25T00:14:08.062Z,63.90
2022-07-25T00:16:34.992Z,63.76
2022-07-25T00:19:04.896Z,63.46
2022-07-25T00:21:31.494Z,63.24
2022-07-25T00:23:58.219Z,63.05
2022-07-25T00:26:24.826Z,62.64
2022-07-25T00:28:51.345Z,62.47
2022-07-25T00:31:17.998Z,62.41
2022-07-25T00:33:44.677Z,62.50
2022-07-25T00:36:11.671Z,62.35
2022-07-25T00:38:38.223Z,62.29
2022-07-25T00:41:07.185Z,62.25
2022-07-25T00:43:33.755Z,62.32
2022-07-25T00:46:00.617Z,62.20
2022-07-25T00:48:28.565Z,62.42
2022-07-25T00:50:59.202Z,62.35
2022-07-25T00:53:25.919Z,62.22
2022-07-25T00:55:53.120Z,62.05
2022-07-25T00:58:19.669Z,62.79
2022-07-25T01:00:47.377Z,63.42
2022-07-25T01:03:14.103Z,63.58
2022-07-25T01:05:40.976Z,63.49
2022-07-25T01:08:08.106Z,63.23
2022-07-25T01:10:35.095Z,63.26
2022-07-25T01:13:01.871Z,63.23
2022-07-25T01:15:28.674Z,63.38
2022-07-25T01:17:55.398Z,63.69
2022-07-25T01:20:24.219Z,63.76
2022-07-25T01:22:51.483Z,63.34
2022-07-25T01:25:19.459Z,63.48
2022-07-25T01:27:51.231Z,63.37
2022-07-25T01:30:22.955Z,63.88
2022-07-25T01:32:49.595Z,64.07
2022-07-25T01:35:16.224Z,64.31
2022-07-25T01:37:45.831Z,64.49
2022-07-25T01:40:13.775Z,64.33
2022-07-25T01:42:40.492Z,64.42
2022-07-25T01:45:07.793Z,64.63
2022-07-25T01:47:34.342Z,64.72
2022-07-25T01:50:01.052Z,64.65
2022-07-25T01:52:27.641Z,64.54
2022-07-25T01:54:54.214Z,64.70
2022-07-25T01:57:21.487Z,64.37
2022-07-25T01:59:49.627Z,64.75
2022-07-25T02:02:16.273Z,64.80
2022-07-25T02:04:42.849Z,65.18
2022-07-25T02:07:09.633Z,65.66
2022-07-25T02:09:36.224Z,66.21
2022-07-25T02:12:03.289Z,66.53
2022-07-25T02:14:29.853Z,66.47
2022-07-25T02:16:56.455Z,66.74
2022-07-25T02:19:23.072Z,66.62
2022-07-25T02:21:49.797Z,66.81
2022-07-25T02:24:16.387Z,66.53
2022-07-25T02:26:43.036Z,66.90
2022-07-25T02:29:09.849Z,68.17
2022-07-25T02:31:36.418Z,68.19
2022-07-25T02:34:03.201Z,67.83
2022-07-25T02:36:30.009Z,67.69
2022-07-25T02:38:56.628Z,67.97
2022-07-25T02:41:23.282Z,67.88
2022-07-25T02:43:50.078Z,67.17
2022-07-25T02:46:16.768Z,67.44
2022-07-25T02:48:43.491Z,67.29
2022-07-25T02:51:10.276Z,67.25
2022-07-25T02:53:55.943Z,67.15
2022-07-25T02:56:23.386Z,67.00
2022-07-25T02:58:50.300Z,66.71
2022-07-25T03:01:17.008Z,66.22
2022-07-25T03:03:44.272Z,65.93
2022-07-25T03:06:10.955Z,65.82
2022-07-25T03:08:37.726Z,66.10
2022-07-25T03:11:04.771Z,65.56
2022-07-25T03:13:33.212Z,65.55
2022-07-25T03:16:00.171Z,65.57
2022-07-25T03:18:26.768Z,65.33
2022-07-25T03:20:53.334Z,64.89
2022-07-25T03:23:19.957Z,64.83
2022-07-25T03:25:46.570Z,64.68
2022-07-25T03:28:14.436Z,64.84
2022-07-25T03:30:41.040Z,64.50
2022-07-25T03:33:07.636Z,64.48
2022-07-25T03:35:35.176Z,64.30
2022-07-25T03:38:02.196Z,64.26
2022-07-25T03:40:28.940Z,64.35
2022-07-25T03:42:55.676Z,64.34
2022-07-25T03:45:22.339Z,64.13
2022-07-25T03:47:49.042Z,64.30
2022-07-25T03:50:15.879Z,64.06
2022-07-25T03:52:42.507Z,64.20
2022-07-25T03:55:11.025Z,63.95
2022-07-25T03:57:38.636Z,64.16
2022-07-25T04:00:07.707Z,64.09
2022-07-25T04:02:34.472Z,64.11
2022-07-25T04:05:01.774Z,64.01
2022-07-25T04:07:28.404Z,64.30
2022-07-25T04:09:54.989Z,64.10
2022-07-25T04:12:21.659Z,64.17
2022-07-25T04:14:48.295Z,64.19
2022-07-25T04:17:15.047Z,64.19
2022-07-25T04:19:41.888Z,64.39
2022-07-25T04:22:08.518Z,64.44
2022-07-25T04:24:35.098Z,64.24
2022-07-25T04:27:01.916Z,64.57
2022-07-25T04:29:29.130Z,64.73
2022-07-25T04:31:56.043Z,64.81
2022-07-25T04:34:22.646Z,64.85
2022-07-25T04:36:49.953Z,64.86
2022-07-25T04:39:17.015Z,65.27
2022-07-25T04:41:43.601Z,65.61
2022-07-25T04:44:10.230Z,66.10
2022-07-25T04:46:36.899Z,66.50
2022-07-25T04:49:03.570Z,66.51
2022-07-25T04:51:30.170Z,66.54
2022-07-25T04:53:56.831Z,66.55
2022-07-25T04:56:23.445Z,66.85
2022-07-25T04:58:50.008Z,67.08
2022-07-25T05:01:16.881Z,67.42
2022-07-25T05:03:50.085Z,67.60
2022-07-25T05:06:18.950Z,67.67
2022-07-25T05:08:45.530Z,67.71
2022-07-25T05:11:12.199Z,67.11
2022-07-25T05:13:39.505Z,67.10
2022-07-25T05:16:07.168Z,67.70
2022-07-25T05:18:34.790Z,67.34
2022-07-25T05:21:01.596Z,67.19
2022-07-25T05:23:28.141Z,66.78
2022-07-25T05:25:54.742Z,67.28
2022-07-25T05:28:21.390Z,67.15
2022-07-25T05:30:47.946Z,67.05
2022-07-25T05:33:15.601Z,66.41
2022-07-25T05:35:42.336Z,66.46
2022-07-25T05:38:08.855Z,65.72
2022-07-25T05:40:35.396Z,65.51
2022-07-25T05:43:03.606Z,64.70
2022-07-25T05:45:31.146Z,65.04
2022-07-25T05:47:57.765Z,65.31
2022-07-25T05:50:24.540Z,64.62
2022-07-25T05:52:51.181Z,64.59
2022-07-25T05:55:17.953Z,64.12
2022-07-25T05:57:44.521Z,63.70
2022-07-25T06:00:12.118Z,63.53
2022-07-25T06:02:38.967Z,63.38
2022-07-25T06:05:05.899Z,62.54
2022-07-25T06:07:32.546Z,62.74
2022-07-25T06:09:59.095Z,62.39
2022-07-25T06:12:25.723Z,62.23
2022-07-25T06:14:52.539Z,62.22
2022-07-25T06:17:19.060Z,62.08
2022-07-25T06:19:45.740Z,62.08
2022-07-25T06:22:12.787Z,62.51
2022-07-25T06:24:42.005Z,62.42
2022-07-25T06:27:09.037Z,62.74
2022-07-25T06:29:35.726Z,63.04
2022-07-25T06:32:02.596Z,62.71
2022-07-25T06:34:29.710Z,62.94
2022-07-25T06:37:00.219Z,63.33
2022-07-25T06:39:28.179Z,63.13
2022-07-25T06:41:54.937Z,63.49
2022-07-25T06:44:21.472Z,63.86
2022-07-25T06:46:48.023Z,63.99
2022-07-25T06:49:16.846Z,64.01
2022-07-25T06:51:43.857Z,64.16
2022-07-25T06:54:10.496Z,64.54
2022-07-25T06:56:37.143Z,64.74
2022-07-25T06:59:03.739Z,64.58
2022-07-25T07:01:30.506Z,63.86
2022-07-25T07:03:58.013Z,64.06
2022-07-25T07:06:24.619Z,64.07
2022-07-25T07:08:51.780Z,64.31
2022-07-25T07:11:18.427Z,63.76
2022-07-25T07:13:45.000Z,63.52
2022-07-25T07:16:11.672Z,63.80
2022-07-25T07:18:38.611Z,63.87
2022-07-25T07:21:06.043Z,63.85
2022-07-25T07:23:33.166Z,64.11
2022-07-25T07:26:00.171Z,64.34
2022-07-25T07:28:27.058Z,64.36
2022-07-25T07:33:40.712Z,64.28
2022-07-25T07:36:07.579Z,63.92
2022-07-25T07:38:34.609Z,64.15
2022-07-25T07:41:01.156Z,63.35
2022-07-25T07:43:30.453Z,62.82
2022-07-25T07:46:00.744Z,62.58
2022-07-25T07:48:31.681Z,62.25
2022-07-25T07:50:59.509Z,62.02
2022-07-25T07:53:46.380Z,61.97
2022-07-25T07:56:14.274Z,61.36
2022-07-25T07:58:40.921Z,61.57
2022-07-25T08:01:07.666Z,61.73
2022-07-25T08:03:34.320Z,61.00
2022-07-25T08:06:00.893Z,61.63
2022-07-25T08:08:31.199Z,62.13
2022-07-25T08:10:59.159Z,61.43
2022-07-25T08:13:30.842Z,61.61
2022-07-25T08:15:59.468Z,60.51
2022-07-25T08:18:27.301Z,59.52
2022-07-25T08:20:54.842Z,58.08
2022-07-25T08:23:22.557Z,56.42
2022-07-25T08:25:49.159Z,54.90
2022-07-25T08:28:16.815Z,55.18
2022-07-25T08:30:43.558Z,55.02
2022-07-25T08:33:18.989Z,54.87
2022-07-25T08:35:51.965Z,54.46
2022-07-25T08:38:19.389Z,54.92
2022-07-25T08:40:46.353Z,55.22
2022-07-25T08:43:17.963Z,55.53
2022-07-25T08:45:47.071Z,55.66
2022-07-25T08:48:14.305Z,54.49
2022-07-25T08:50:41.210Z,55.34
2022-07-25T08:53:32.106Z,57.07
2022-07-25T08:55:56.861Z,57.23
2022-07-25T08:58:23.754Z,57.71
2022-07-25T09:00:50.317Z,57.78
2022-07-25T09:03:18.423Z,57.51
2022-07-25T09:05:45.265Z,57.73
2022-07-25T09:08:14.059Z,58.11
2022-07-25T09:10:47.135Z,58.48
2022-07-25T09:13:14.608Z,56.58
2022-07-25T09:15:47.628Z,54.87
2022-07-25T09:18:33.697Z,51.70
2022-07-25T09:21:01.499Z,51.93
2022-07-25T09:23:31.485Z,52.07
2022-07-25T09:26:15.197Z,50.56
2022-07-25T09:28:42.894Z,49.65
2022-07-25T09:31:09.902Z,50.46
2022-07-25T09:33:49.715Z,50.70
2022-07-25T09:36:16.381Z,50.51
2022-07-25T09:39:01.664Z,51.29
2022-07-25T09:41:40.513Z,49.91
2022-07-25T09:44:18.798Z,48.90
2022-07-25T09:46:45.982Z,49.61
2022-07-25T09:49:15.875Z,49.80
2022-07-25T09:51:43.117Z,51.88
2022-07-25T09:54:10.396Z,52.75
2022-07-25T09:56:37.133Z,53.16
2022-07-25T09:59:04.883Z,53.08
2022-07-25T10:01:37.907Z,53.91
2022-07-25T10:04:14.443Z,54.11
2022-07-25T10:06:57.429Z,55.24
2022-07-25T10:09:24.155Z,54.10
2022-07-25T10:12:07.714Z,50.12
2022-07-25T10:14:35.770Z,50.03
2022-07-25T10:17:02.537Z,50.43
2022-07-25T10:19:58.708Z,51.97
2022-07-25T10:22:55.210Z,53.07
2022-07-25T10:25:22.724Z,52.87
2022-07-25T10:27:58.200Z,51.84
2022-07-25T10:30:26.945Z,49.26
2022-07-25T10:33:04.837Z,46.87
2022-07-25T10:35:31.676Z,46.91
2022-07-25T10:37:59.654Z,47.55
2022-07-25T10:40:42.299Z,48.72
2022-07-25T10:43:13.339Z,49.00
2022-07-25T10:45:44.501Z,49.07
2022-07-25T10:48:13.338Z,49.43
2022-07-25T10:51:00.792Z,49.76
2022-07-25T10:53:30.294Z,49.46
2022-07-25T10:56:05.693Z,50.63
2022-07-25T10:58:46.320Z,50.93
2022-07-25T11:01:14.879Z,51.41
2022-07-25T11:03:45.081Z,51.11
2022-07-25T11:06:19.471Z,52.38
2022-07-25T11:08:46.195Z,53.07
2022-07-25T11:11:12.968Z,57.40
2022-07-25T11:13:41.262Z,60.39
2022-07-25T11:16:09.485Z,60.11
2022-07-25T11:18:40.999Z,61.03
2022-07-25T11:21:09.501Z,61.48
2022-07-25T11:23:36.978Z,62.49
2022-07-25T11:26:11.075Z,63.28
2022-07-25T11:28:47.838Z,62.59
2022-07-25T11:31:15.854Z,62.90
2022-07-25T11:33:46.554Z,63.25
2022-07-25T11:36:13.578Z,62.39
2022-07-25T11:38:41.146Z,60.72
2022-07-25T11:41:08.017Z,60.49
2022-07-25T11:43:34.795Z,61.75
2022-07-25T11:46:06.834Z,61.79
2022-07-25T11:48:39.608Z,61.00
2022-07-25T11:51:20.682Z,60.72
2022-07-25T11:53:49.768Z,59.97
2022-07-25T11:59:08.880Z,60.80
2022-07-25T12:01:38.599Z,59.51
2022-07-25T12:04:16.849Z,60.65
2022-07-25T12:06:45.988Z,58.30
2022-07-25T12:09:21.041Z,56.54
2022-07-25T12:11:49.358Z,56.38
2022-07-25T12:14:16.373Z,54.68
2022-07-25T12:16:43.225Z,51.56
2022-07-25T12:19:20.213Z,52.38
2022-07-25T12:21:47.010Z,49.92
2022-07-25T12:24:13.864Z,48.36
2022-07-25T12:26:40.480Z,49.88
2022-07-25T12:29:07.285Z,50.68
2022-07-25T12:31:34.284Z,49.63
2022-07-25T12:34:00.896Z,50.68
2022-07-25T12:36:27.614Z,48.27
2022-07-25T12:38:54.210Z,48.14
2022-07-25T12:41:22.987Z,46.80
2022-07-25T12:43:49.875Z,47.31
2022-07-25T12:46:16.910Z,48.63
2022-07-25T12:48:44.538Z,49.37
2022-07-25T12:51:11.161Z,46.76
2022-07-25T12:53:42.047Z,44.40
2022-07-25T12:56:09.879Z,43.29
2022-07-25T12:58:37.572Z,42.10
2022-07-25T13:01:05.877Z,44.84
2022-07-25T13:03:32.654Z,49.00
2022-07-25T13:05:59.189Z,50.86
2022-07-25T13:08:25.799Z,52.20
2022-07-25T13:10:52.387Z,51.23
2022-07-25T13:13:19.776Z,49.01
2022-07-25T13:15:46.498Z,46.21
2022-07-25T13:18:13.301Z,46.80
2022-07-25T13:20:39.835Z,47.46
2022-07-25T13:23:06.442Z,47.86
2022-07-25T13:25:33.927Z,47.70
2022-07-25T13:28:02.317Z,44.81
2022-07-25T13:30:28.930Z,43.70
2022-07-25T13:32:55.855Z,41.35
2022-07-25T13:35:25.769Z,40.44
2022-07-25T13:37:58.995Z,40.06
2022-07-25T13:40:25.581Z,40.91
2022-07-25T13:42:52.806Z,42.43
2022-07-25T13:45:21.683Z,41.03
2022-07-25T13:48:00.911Z,41.03
2022-07-25T13:50:35.558Z,40.26
2022-07-25T13:53:03.857Z,42.85
2022-07-25T13:55:36.713Z,45.75
2022-07-25T13:58:03.536Z,45.66
2022-07-25T14:00:30.158Z,46.09
2022-07-25T14:02:56.737Z,46.08
2022-07-25T14:05:23.378Z,47.17
2022-07-25T14:07:50.046Z,44.54
2022-07-25T14:10:18.110Z,43.44
2022-07-25T14:12:44.800Z,42.17
2022-07-25T14:15:11.531Z,41.32
2022-07-25T14:17:39.010Z,41.23
2022-07-25T14:20:07.516Z,42.84
2022-07-25T14:22:34.436Z,42.21
2022-07-25T14:25:01.057Z,42.92
2022-07-25T14:27:27.593Z,41.84
2022-07-25T14:29:54.356Z,43.24
2022-07-25T14:32:23.045Z,41.89
2022-07-25T14:34:49.934Z,40.59
2022-07-25T14:37:16.578Z,41.24
2022-07-25T14:39:44.167Z,43.02
2022-07-25T14:42:11.626Z,44.02
2022-07-25T14:44:39.496Z,44.73
2022-07-25T14:47:12.264Z,45.49
2022-07-25T14:49:40.220Z,43.50
2022-07-25T14:52:06.803Z,44.49
2022-07-25T14:54:33.446Z,43.75
2022-07-25T14:57:00.047Z,44.67
2022-07-25T14:59:26.751Z,45.10
2022-07-25T15:01:53.377Z,46.10
2022-07-25T15:04:23.167Z,45.62
2022-07-25T15:06:49.923Z,44.59
2022-07-25T15:09:16.523Z,45.99
2022-07-25T15:11:54.410Z,45.79
2022-07-25T15:14:22.146Z,46.49
2022-07-25T15:16:48.859Z,47.52
2022-07-25T15:19:17.231Z,47.85
2022-07-25T15:21:45.143Z,46.61
2022-07-25T15:24:11.835Z,47.14
2022-07-25T15:26:38.532Z,48.01
2022-07-25T15:29:10.458Z,47.75
2022-07-25T15:31:37.722Z,48.34
2022-07-25T15:34:04.548Z,49.69
2022-07-25T15:36:31.220Z,50.05
2022-07-25T15:38:57.897Z,50.35
2022-07-25T15:41:24.535Z,49.20
2022-07-25T15:43:51.325Z,48.73
2022-07-25T15:46:18.083Z,48.97
2022-07-25T15:48:45.366Z,50.81
2022-07-25T15:51:21.593Z,51.14
2022-07-25T15:53:48.867Z,51.07
2022-07-25T15:56:16.310Z,52.48
2022-07-25T15:58:43.049Z,51.74
2022-07-25T16:01:09.785Z,50.85
2022-07-25T16:03:37.143Z,50.64
2022-07-25T16:06:04.555Z,49.88
2022-07-25T16:08:31.223Z,50.63
2022-07-25T16:10:58.763Z,49.36
2022-07-25T16:13:26.181Z,50.76
2022-07-25T16:15:52.817Z,51.39
2022-07-25T16:18:19.557Z,51.22
2022-07-25T16:20:46.171Z,51.71
2022-07-25T16:23:13.786Z,52.25
2022-07-25T16:25:41.176Z,52.46
2022-07-25T16:28:07.780Z,52.58
2022-07-25T16:30:34.393Z,51.89
2022-07-25T16:33:00.975Z,52.40
2022-07-25T16:35:27.574Z,52.72
2022-07-25T16:37:54.177Z,52.95
2022-07-25T16:40:21.114Z,53.96
2022-07-25T16:42:50.263Z,53.25
2022-07-25T16:45:16.797Z,53.56
2022-07-25T16:47:44.173Z,52.88
2022-07-25T16:50:11.238Z,54.27
2022-07-25T16:52:37.925Z,54.15
2022-07-25T16:55:05.484Z,53.67
2022-07-25T16:57:32.563Z,54.28
2022-07-25T17:00:00.854Z,53.50
2022-07-25T17:02:29.661Z,54.37
2022-07-25T17:04:58.956Z,54.77
2022-07-25T17:07:26.319Z,54.66
2022-07-25T17:09:53.532Z,55.24
2022-07-25T17:12:20.463Z,55.50
2022-07-25T17:14:49.952Z,55.87
2022-07-25T17:17:16.596Z,56.17
2022-07-25T17:19:43.441Z,56.92
2022-07-25T17:22:10.416Z,58.00
2022-07-25T17:24:37.481Z,58.95
2022-07-25T17:27:05.658Z,59.72
2022-07-25T17:29:32.357Z,60.83
2022-07-25T17:31:58.933Z,61.03
2022-07-25T17:34:26.890Z,61.53
2022-07-25T17:36:54.365Z,62.24
2022-07-25T17:39:21.087Z,62.30
2022-07-25T17:41:47.722Z,61.97
2022-07-25T17:44:14.469Z,62.48
2022-07-25T17:46:41.276Z,62.54
2022-07-25T17:49:08.052Z,62.30
2022-07-25T17:51:34.686Z,62.78
2022-07-25T17:54:01.243Z,62.29
2022-07-25T17:56:27.905Z,61.97
2022-07-25T17:58:54.452Z,61.34
2022-07-25T18:01:21.052Z,61.47
2022-07-25T18:03:48.014Z,61.40
2022-07-25T18:06:14.928Z,61.71
2022-07-25T18:08:44.451Z,61.52
2022-07-25T18:11:11.173Z,62.18
2022-07-25T18:13:37.929Z,61.63
2022-07-25T18:16:05.027Z,62.67
2022-07-25T18:18:33.093Z,61.86
2022-07-25T18:20:59.791Z,62.60
2022-07-25T18:23:28.654Z,63.03
2022-07-25T18:25:55.459Z,62.81
2022-07-25T18:28:22.424Z,62.87
2022-07-25T18:30:51.733Z,64.23
2022-07-25T18:33:19.166Z,63.79
2022-07-25T18:35:45.846Z,63.84
2022-07-25T18:38:15.377Z,64.68
2022-07-25T18:40:42.015Z,64.18
2022-07-25T18:43:09.186Z,64.31
2022-07-25T18:45:37.543Z,64.08
2022-07-25T18:48:07.271Z,64.95
2022-07-25T18:50:34.285Z,64.51
2022-07-25T18:53:00.859Z,64.52
2022-07-25T18:55:27.533Z,64.76
2022-07-25T18:57:54.365Z,64.96
2022-07-25T19:00:21.262Z,65.72
2022-07-25T19:02:47.884Z,65.38
2022-07-25T19:05:14.825Z,65.49
2022-07-25T19:07:41.670Z,65.52
2022-07-25T19:10:10.370Z,65.22
2022-07-25T19:12:37.509Z,64.30
2022-07-25T19:15:05.321Z,63.94
2022-07-25T19:17:33.221Z,63.83
2022-07-25T19:20:00.729Z,64.03
2022-07-25T19:22:27.304Z,63.70
2022-07-25T19:24:53.909Z,63.56
2022-07-25T19:27:20.680Z,63.48
2022-07-25T19:29:47.384Z,63.96
2022-07-25T19:32:13.969Z,64.09
2022-07-25T19:34:44.538Z,64.26
2022-07-25T19:37:11.271Z,64.26
2022-07-25T19:39:37.870Z,64.76
2022-07-25T19:42:07.485Z,64.18
2022-07-25T19:44:34.355Z,64.41
2022-07-25T19:47:01.170Z,64.59
2022-07-25T19:49:28.188Z,64.75
2022-07-25T19:51:54.872Z,64.98
2022-07-25T19:54:21.491Z,65.51
2022-07-25T19:56:48.074Z,65.42
2022-07-25T19:59:14.702Z,66.34
2022-07-25T20:01:42.108Z,66.22
2022-07-25T20:04:10.323Z,66.65
2022-07-25T20:06:37.198Z,66.75
2022-07-25T20:09:04.605Z,66.11
2022-07-25T20:11:33.264Z,66.65
2022-07-25T20:14:01.549Z,66.80
2022-07-25T20:16:28.745Z,66.54
2022-07-25T20:18:55.350Z,67.27
2022-07-25T20:21:22.290Z,67.66
2022-07-25T20:23:48.869Z,67.56
2022-07-25T20:26:15.565Z,67.55
2022-07-25T20:28:43.184Z,67.31
2022-07-25T20:31:12.338Z,66.33
2022-07-25T20:33:42.829Z,65.89
2022-07-25T20:36:09.481Z,65.63
2022-07-25T20:38:36.224Z,65.65
2022-07-25T20:41:03.210Z,65.73
2022-07-25T20:43:29.938Z,65.73
2022-07-25T20:45:57.488Z,66.23
2022-07-25T20:48:24.184Z,66.56
2022-07-25T20:50:50.742Z,67.02
2022-07-25T20:53:17.348Z,67.55
2022-07-25T20:55:43.893Z,67.58
2022-07-25T20:58:10.505Z,67.83
2022-07-25T21:00:37.309Z,67.97
2022-07-25T21:03:04.515Z,68.38
2022-07-25T21:05:37.603Z,68.99
2022-07-25T21:08:08.240Z,68.92
2022-07-25T21:10:35.057Z,69.04
2022-07-25T21:13:01.678Z,68.95
2022-07-25T21:15:32.744Z,68.94
2022-07-25T21:17:59.639Z,69.45
2022-07-25T21:20:27.060Z,69.55
2022-07-25T21:22:55.311Z,69.91
2022-07-25T21:25:22.010Z,70.26
2022-07-25T21:27:48.762Z,70.34
2022-07-25T21:30:15.381Z,70.42
2022-07-25T21:32:45.347Z,70.64
2022-07-25T21:35:12.412Z,70.87
2022-07-25T21:37:42.532Z,71.04
2022-07-25T21:40:10.330Z,70.64
2022-07-25T21:42:37.408Z,69.93
2022-07-25T21:45:05.106Z,69.96
2022-07-25T21:47:31.739Z,69.92
2022-07-25T21:50:24.223Z,70.26
2022-07-25T21:52:51.893Z,70.66
2022-07-25T21:55:18.586Z,71.16
2022-07-25T21:57:45.207Z,70.63
2022-07-25T22:00:13.210Z,70.53
2022-07-25T22:02:44.949Z,70.77
2022-07-25T22:05:12.946Z,71.19
2022-07-25T22:07:43.269Z,71.32
2022-07-25T22:10:12.158Z,71.19
2022-07-25T22:12:43.970Z,71.06
2022-07-25T22:15:12.710Z,71.20
2022-07-25T22:17:48.442Z,71.28
2022-07-25T22:20:16.910Z,70.26
2022-07-25T22:22:43.618Z,69.86
2022-07-25T22:25:10.250Z,70.12
2022-07-25T22:27:36.892Z,70.06
2022-07-25T22:30:04.740Z,70.18
2022-07-25T22:32:31.516Z,70.43
2022-07-25T22:34:58.208Z,70.00
2022-07-25T22:37:24.816Z,70.01
2022-07-25T22:39:51.779Z,69.88
2022-07-25T22:42:23.626Z,69.85
2022-07-25T22:44:50.401Z,69.41
2022-07-25T22:47:16.970Z,69.17
2022-07-25T22:49:43.569Z,68.99
2022-07-25T22:52:10.178Z,69.18
2022-07-25T22:54:37.402Z,69.26
2022-07-25T22:57:04.111Z,69.60
2022-07-25T22:59:30.768Z,70.11
2022-07-25T23:01:57.430Z,70.36
2022-07-25T23:04:24.075Z,70.64
2022-07-25T23:06:50.769Z,70.47
2022-07-25T23:09:17.382Z,70.86
2022-07-25T23:11:43.990Z,70.49
2022-07-25T23:14:10.654Z,70.24
2022-07-25T23:16:37.307Z,70.13
2022-07-25T23:19:04.064Z,69.83
2022-07-25T23:21:31.134Z,69.93
2022-07-25T23:23:59.910Z,69.70
2022-07-25T23:26:28.137Z,70.73
2022-07-25T23:28:54.696Z,72.66
2022-07-25T23:31:21.622Z,74.09
2022-07-25T23:33:48.218Z,74.81
2022-07-25T23:36:14.849Z,74.77
2022-07-25T23:38:43.700Z,74.85
2022-07-25T23:41:10.949Z,74.93
2022-07-25T23:43:57.524Z,75.76
2022-07-25T23:46:27.762Z,76.11
2022-07-25T23:48:58.064Z,76.21
2022-07-25T23:51:24.863Z,76.73
2022-07-25T23:53:51.964Z,77.33
2022-07-25T23:56:21.092Z,76.79
2022-07-25T23:58:50.076Z,77.38
